createdAt,value
2019-02-20T00:03:06.327Z,70.54
2019-02-20T00:05:01.271Z,70.89
2019-02-20T00:09:06.359Z,70.70
2019-02-20T00:11:01.407Z,70.60
2019-02-20T00:15:01.309Z,70.91
2019-02-20T00:17:01.258Z,70.69
2019-02-20T00:21:01.268Z,70.62
2019-02-20T00:23:01.306Z,70.48
2019-02-20T00:27:01.310Z,70.70
2019-02-20T00:29:01.313Z,70.76
2019-02-20T00:33:02.074Z,70.90
2019-02-20T00:35:01.330Z,70.79
2019-02-20T00:39:01.345Z,70.74
2019-02-20T00:41:01.353Z,71.07
2019-02-20T00:45:01.396Z,70.84
2019-02-20T00:47:01.404Z,70.77
2019-02-20T00:51:01.359Z,70.96
2019-02-20T00:53:01.473Z,70.60
2019-02-20T00:57:01.380Z,70.71
2019-02-20T00:59:01.400Z,70.67
2019-02-20T01:03:01.397Z,70.92
2019-02-20T01:05:01.364Z,70.67
2019-02-20T01:09:06.608Z,70.62
2019-02-20T01:11:01.389Z,70.90
2019-02-20T01:15:01.473Z,70.86
2019-02-20T01:17:02.737Z,70.77
2019-02-20T01:21:01.437Z,70.78
2019-02-20T01:23:01.415Z,70.75
2019-02-20T01:27:01.477Z,70.88
2019-02-20T01:29:01.441Z,70.65
2019-02-20T01:33:06.137Z,70.68
2019-02-20T01:35:01.547Z,70.84
2019-02-20T01:39:01.505Z,70.95
2019-02-20T01:41:06.459Z,70.60
2019-02-20T01:45:01.525Z,70.91
2019-02-20T01:47:01.533Z,70.65
2019-02-20T01:51:01.545Z,70.51
2019-02-20T01:53:10.113Z,70.84
2019-02-20T01:57:01.524Z,71.15
2019-02-20T01:59:01.637Z,70.84
2019-02-20T02:03:06.538Z,70.79
2019-02-20T02:05:01.546Z,70.47
2019-02-20T02:09:01.561Z,70.77
2019-02-20T02:11:01.558Z,70.98
2019-02-20T02:15:01.565Z,70.79
2019-02-20T02:17:01.534Z,70.98
2019-02-20T02:21:01.602Z,70.87
2019-02-20T02:23:01.616Z,71.00
2019-02-20T02:27:01.599Z,70.84
2019-02-20T02:29:06.609Z,70.79
2019-02-20T02:33:01.630Z,70.72
2019-02-20T02:35:01.611Z,71.13
2019-02-20T02:39:01.650Z,71.22
2019-02-20T02:41:01.651Z,70.86
2019-02-20T02:45:01.691Z,71.00
2019-02-20T02:47:01.692Z,71.04
2019-02-20T02:51:01.722Z,71.06
2019-02-20T02:53:01.749Z,70.77
2019-02-20T02:57:01.729Z,70.79
2019-02-20T02:59:01.700Z,70.94
2019-02-20T03:03:01.760Z,70.92
2019-02-20T03:05:01.774Z,71.41
2019-02-20T03:09:01.734Z,70.80
2019-02-20T03:11:01.772Z,70.62
2019-02-20T03:15:01.781Z,70.71
2019-02-20T03:17:01.767Z,70.83
2019-02-20T03:21:01.806Z,70.99
2019-02-20T03:23:01.829Z,70.83
2019-02-20T03:27:06.439Z,70.98
2019-02-20T03:29:05.732Z,70.70
2019-02-20T03:33:01.830Z,70.90
2019-02-20T03:35:06.497Z,71.19
2019-02-20T03:39:01.810Z,70.85
2019-02-20T03:41:01.832Z,70.72
2019-02-20T03:45:01.864Z,70.79
2019-02-20T03:47:01.838Z,70.84
2019-02-20T03:51:01.877Z,71.03
2019-02-20T03:53:01.894Z,71.07
2019-02-20T03:57:01.919Z,70.71
2019-02-20T03:59:01.912Z,71.17
2019-02-20T04:03:01.952Z,70.90
2019-02-20T04:05:01.965Z,70.88
2019-02-20T04:09:01.972Z,70.92
2019-02-20T04:11:01.994Z,71.34
2019-02-20T04:15:02.023Z,70.78
2019-02-20T04:17:02.017Z,70.81
2019-02-20T04:21:02.071Z,71.18
2019-02-20T04:23:02.106Z,71.53
2019-02-20T04:27:06.615Z,71.20
2019-02-20T04:29:02.092Z,71.09
2019-02-20T04:33:02.065Z,70.71
2019-02-20T04:35:02.084Z,70.90
2019-02-20T04:39:02.073Z,70.93
2019-02-20T04:41:02.092Z,71.12
2019-02-20T04:45:02.084Z,70.74
2019-02-20T04:47:02.107Z,70.87
2019-02-20T04:51:02.114Z,70.83
2019-02-20T04:53:02.118Z,71.08
2019-02-20T04:57:02.163Z,71.04
2019-02-20T04:59:02.131Z,70.84
2019-02-20T05:03:02.335Z,70.93
2019-02-20T05:05:04.166Z,71.18
2019-02-20T05:09:02.382Z,71.26
2019-02-20T05:11:02.203Z,70.94
2019-02-20T05:15:02.295Z,70.97
2019-02-20T05:17:02.374Z,70.78
2019-02-20T05:21:02.354Z,70.87
2019-02-20T05:25:02.368Z,71.23
2019-02-20T05:27:07.418Z,70.87
2019-02-20T05:33:02.347Z,70.96
2019-02-20T05:35:02.249Z,70.61
2019-02-20T05:41:02.375Z,71.10
2019-02-20T05:43:02.259Z,70.70
2019-02-20T05:47:02.266Z,70.73
2019-02-20T05:49:02.315Z,71.11
2019-02-20T05:53:02.444Z,70.89
2019-02-20T05:55:02.268Z,71.20
2019-02-20T05:59:07.290Z,70.91
2019-02-20T06:01:07.072Z,71.37
2019-02-20T06:05:02.413Z,71.31
2019-02-20T06:07:02.309Z,70.78
2019-02-20T06:11:02.322Z,70.78
2019-02-20T06:13:02.295Z,70.71
2019-02-20T06:17:02.496Z,70.87
2019-02-20T06:19:04.518Z,71.08
2019-02-20T06:23:02.536Z,70.88
2019-02-20T06:25:02.329Z,71.06
2019-02-20T06:29:07.332Z,70.88
2019-02-20T06:31:02.353Z,70.77
2019-02-20T06:35:05.289Z,71.31
2019-02-20T06:37:04.342Z,70.91
2019-02-20T06:41:07.358Z,71.32
2019-02-20T06:43:02.539Z,71.24
2019-02-20T06:47:02.572Z,71.39
2019-02-20T06:49:06.761Z,70.76
2019-02-20T06:53:07.368Z,71.17
2019-02-20T06:55:03.318Z,70.69
2019-02-20T06:59:05.080Z,71.20
2019-02-20T07:01:02.383Z,70.95
2019-02-20T07:05:02.385Z,71.19
2019-02-20T07:07:07.072Z,71.05
2019-02-20T07:11:06.996Z,70.59
2019-02-20T07:13:05.346Z,70.88
2019-02-20T07:17:02.564Z,71.03
2019-02-20T07:19:02.404Z,70.97
2019-02-20T07:23:07.367Z,71.08
2019-02-20T07:25:06.919Z,71.17
2019-02-20T07:29:02.401Z,71.05
2019-02-20T07:31:07.334Z,70.86
2019-02-20T07:35:02.547Z,70.83
2019-02-20T07:37:02.440Z,70.83
2019-02-20T07:41:02.449Z,70.94
2019-02-20T07:43:02.457Z,71.14
2019-02-20T07:47:05.189Z,70.64
2019-02-20T07:49:02.485Z,70.92
2019-02-20T07:53:02.642Z,71.16
2019-02-20T07:55:12.563Z,70.86
2019-02-20T07:59:02.654Z,70.94
2019-02-20T08:01:02.664Z,71.03
2019-02-20T08:05:02.565Z,71.01
2019-02-20T08:07:07.474Z,70.85
2019-02-20T08:11:02.635Z,71.28
2019-02-20T08:13:05.441Z,71.26
2019-02-20T08:17:02.653Z,71.27
2019-02-20T08:19:02.713Z,70.68
2019-02-20T08:23:05.452Z,71.00
2019-02-20T08:25:02.496Z,70.97
2019-02-20T08:31:02.496Z,71.17
2019-02-20T08:33:02.544Z,71.26
2019-02-20T08:37:07.837Z,71.28
2019-02-20T08:39:02.658Z,71.16
2019-02-20T08:43:12.509Z,71.29
2019-02-20T08:45:02.680Z,71.03
2019-02-20T08:49:02.683Z,70.86
2019-02-20T08:51:02.773Z,71.01
2019-02-20T08:55:02.529Z,71.09
2019-02-20T08:57:02.695Z,71.00
2019-02-20T09:01:02.546Z,71.13
2019-02-20T09:03:07.598Z,70.74
2019-02-20T09:07:02.642Z,71.55
2019-02-20T09:09:07.609Z,71.42
2019-02-20T09:13:02.727Z,71.19
2019-02-20T09:15:02.677Z,71.50
2019-02-20T09:19:02.596Z,71.01
2019-02-20T09:21:02.748Z,70.87
2019-02-20T09:25:02.586Z,71.08
2019-02-20T09:27:02.635Z,71.35
2019-02-20T09:31:05.316Z,71.02
2019-02-20T09:33:02.726Z,71.27
2019-02-20T09:37:02.769Z,71.07
2019-02-20T09:39:04.903Z,71.24
2019-02-20T09:43:02.772Z,70.90
2019-02-20T09:45:02.591Z,71.48
2019-02-20T09:49:02.768Z,71.08
2019-02-20T09:51:02.823Z,71.16
2019-02-20T09:55:02.767Z,71.15
2019-02-20T09:57:02.836Z,71.18
2019-02-20T10:01:03.128Z,71.17
2019-02-20T10:03:02.789Z,70.92
2019-02-20T10:07:07.811Z,71.17
2019-02-20T10:09:07.598Z,70.96
2019-02-20T10:13:02.647Z,70.80
2019-02-20T10:15:02.807Z,70.81
2019-02-20T10:19:02.670Z,70.73
2019-02-20T10:21:02.839Z,70.87
2019-02-20T10:25:07.923Z,71.03
2019-02-20T10:27:02.795Z,71.03
2019-02-20T10:31:02.783Z,71.12
2019-02-20T10:33:02.821Z,70.70
2019-02-20T10:37:02.806Z,71.17
2019-02-20T10:39:02.835Z,70.87
2019-02-20T10:43:03.634Z,71.10
2019-02-20T10:45:02.764Z,71.00
2019-02-20T10:49:02.789Z,70.72
2019-02-20T10:51:02.801Z,71.08
2019-02-20T10:55:02.794Z,70.90
2019-02-20T10:57:02.839Z,71.05
2019-02-20T11:01:02.687Z,71.03
2019-02-20T11:03:02.856Z,70.92
2019-02-20T11:07:06.259Z,70.99
2019-02-20T11:09:02.743Z,70.69
2019-02-20T11:13:02.826Z,70.79
2019-02-20T11:15:02.844Z,71.02
2019-02-20T11:19:02.863Z,70.42
2019-02-20T11:21:02.714Z,70.27
2019-02-20T11:27:02.739Z,70.74
2019-02-20T11:29:02.857Z,70.65
2019-02-20T11:33:03.475Z,70.39
2019-02-20T11:35:02.731Z,70.39
2019-02-20T11:39:02.892Z,70.40
2019-02-20T11:41:03.792Z,70.22
2019-02-20T11:45:02.858Z,70.40
2019-02-20T11:47:02.960Z,70.11
2019-02-20T11:51:02.977Z,70.39
2019-02-20T11:53:02.869Z,70.21
2019-02-20T11:57:02.917Z,70.34
2019-02-20T11:59:08.413Z,70.28
2019-02-20T12:03:02.930Z,70.20
2019-02-20T12:05:11.955Z,70.38
2019-02-20T12:09:03.028Z,70.42
2019-02-20T12:11:07.843Z,70.29
2019-02-20T12:17:07.256Z,70.44
2019-02-20T12:19:02.855Z,70.31
2019-02-20T12:23:02.806Z,70.57
2019-02-20T12:25:04.197Z,70.67
2019-02-20T12:29:02.964Z,70.49
2019-02-20T12:31:02.922Z,70.49
2019-02-20T12:35:02.934Z,70.42
2019-02-20T12:37:05.335Z,70.78
2019-02-20T12:43:07.985Z,70.71
2019-02-20T12:45:02.824Z,70.64
2019-02-20T12:49:02.924Z,71.00
2019-02-20T12:51:02.994Z,70.63
2019-02-20T12:55:02.826Z,71.01
2019-02-20T12:57:02.968Z,70.88
2019-02-20T13:01:07.645Z,70.83
2019-02-20T13:03:03.010Z,71.04
2019-02-20T13:07:02.932Z,70.71
2019-02-20T13:09:03.080Z,70.65
2019-02-20T13:13:02.963Z,71.11
2019-02-20T13:15:03.956Z,71.00
2019-02-20T13:19:03.029Z,71.24
2019-02-20T13:21:02.994Z,71.10
2019-02-20T13:25:04.162Z,71.21
2019-02-20T13:27:07.620Z,71.13
2019-02-20T13:31:02.889Z,71.26
2019-02-20T13:33:02.993Z,71.32
2019-02-20T13:37:02.889Z,71.32
2019-02-20T13:39:07.888Z,71.32
2019-02-20T13:43:03.059Z,71.34
2019-02-20T13:45:02.887Z,71.26
2019-02-20T13:49:03.121Z,71.14
2019-02-20T13:51:02.992Z,71.29
2019-02-20T13:55:03.906Z,71.31
2019-02-20T13:57:02.924Z,71.28
2019-02-20T14:01:03.069Z,71.26
2019-02-20T14:03:02.944Z,71.41
2019-02-20T14:07:03.090Z,71.52
2019-02-20T14:09:02.969Z,71.19
2019-02-20T14:13:03.138Z,71.55
2019-02-20T14:15:02.993Z,71.38
2019-02-20T14:19:03.091Z,71.51
2019-02-20T14:21:03.074Z,71.51
2019-02-20T14:25:04.078Z,71.79
2019-02-20T14:27:10.517Z,72.01
2019-02-20T14:31:02.967Z,71.69
2019-02-20T14:33:08.154Z,71.85
2019-02-20T14:37:03.009Z,71.72
2019-02-20T14:39:07.219Z,71.76
2019-02-20T14:43:08.192Z,71.78
2019-02-20T14:45:07.470Z,71.81
2019-02-20T14:49:09.453Z,71.84
2019-02-20T14:51:03.164Z,71.86
2019-02-20T14:55:07.728Z,71.95
2019-02-20T14:57:02.990Z,71.99
2019-02-20T15:01:03.132Z,71.39
2019-02-20T15:03:03.173Z,72.05
2019-02-20T15:07:04.141Z,71.91
2019-02-20T15:09:02.998Z,71.73
2019-02-20T15:13:05.973Z,72.02
2019-02-20T15:15:10.342Z,72.04
2019-02-20T15:19:03.067Z,72.08
2019-02-20T15:21:03.047Z,71.93
2019-02-20T15:25:03.135Z,72.39
2019-02-20T15:27:03.137Z,71.82
2019-02-20T15:31:03.128Z,72.12
2019-02-20T15:33:03.116Z,72.40
2019-02-20T15:37:03.138Z,72.34
2019-02-20T15:39:03.026Z,72.07
2019-02-20T15:43:03.187Z,72.21
2019-02-20T15:45:08.498Z,71.77
2019-02-20T15:49:03.252Z,72.00
2019-02-20T15:51:06.580Z,72.49
2019-02-20T15:55:03.163Z,71.93
2019-02-20T15:57:03.033Z,72.48
2019-02-20T16:01:03.194Z,72.16
2019-02-20T16:03:03.333Z,72.36
2019-02-20T16:07:03.096Z,72.37
2019-02-20T16:09:03.129Z,72.46
2019-02-20T16:13:08.254Z,72.35
2019-02-20T16:15:03.221Z,72.46
2019-02-20T16:19:03.096Z,72.28
2019-02-20T16:21:03.077Z,72.31
2019-02-20T16:25:03.223Z,72.09
2019-02-20T16:27:03.117Z,72.47
2019-02-20T16:31:03.089Z,72.54
2019-02-20T16:33:07.299Z,72.58
2019-02-20T16:37:08.535Z,72.25
2019-02-20T16:39:03.234Z,72.13
2019-02-20T16:47:03.288Z,72.37
2019-02-20T16:49:08.154Z,72.69
2019-02-20T16:53:04.487Z,72.35
2019-02-20T16:55:06.686Z,72.45
2019-02-20T16:59:05.039Z,72.60
2019-02-20T17:01:03.123Z,72.23
2019-02-20T17:05:03.240Z,72.71
2019-02-20T17:07:03.182Z,72.22
2019-02-20T17:11:03.197Z,72.53
2019-02-20T17:13:03.259Z,72.74
2019-02-20T17:17:03.262Z,72.25
2019-02-20T17:19:03.141Z,72.22
2019-02-20T17:23:03.145Z,72.62
2019-02-20T17:25:04.178Z,72.36
2019-02-20T17:29:08.182Z,72.24
2019-02-20T17:31:03.356Z,72.55
2019-02-20T17:35:03.159Z,72.67
2019-02-20T17:37:03.190Z,72.50
2019-02-20T17:41:07.949Z,72.36
2019-02-20T17:43:07.457Z,72.67
2019-02-20T17:47:03.168Z,72.39
2019-02-20T17:49:07.058Z,72.39
2019-02-20T17:53:04.163Z,72.17
2019-02-20T17:55:03.326Z,72.16
2019-02-20T17:59:08.160Z,72.37
2019-02-20T18:01:03.331Z,72.52
2019-02-20T18:05:03.195Z,72.39
2019-02-20T18:07:13.309Z,72.30
2019-02-20T18:11:03.213Z,72.15
2019-02-20T18:13:03.202Z,72.17
2019-02-20T18:19:03.243Z,72.30
2019-02-20T18:21:03.222Z,72.23
2019-02-20T18:25:03.260Z,72.47
2019-02-20T18:27:03.247Z,72.31
2019-02-20T18:31:03.322Z,72.07
2019-02-20T18:33:03.268Z,72.55
2019-02-20T18:37:03.288Z,72.27
2019-02-20T18:39:04.721Z,72.57
2019-02-20T18:43:03.282Z,72.28
2019-02-20T18:45:03.316Z,72.50
2019-02-20T18:49:03.354Z,72.35
2019-02-20T18:51:03.332Z,72.21
2019-02-20T18:55:05.713Z,72.38
2019-02-20T18:57:03.334Z,72.46
2019-02-20T19:01:03.353Z,72.23
2019-02-20T19:03:03.364Z,72.01
2019-02-20T19:07:03.348Z,72.37
2019-02-20T19:09:07.736Z,72.19
2019-02-20T19:13:03.347Z,72.32
2019-02-20T19:15:05.365Z,72.17
2019-02-20T19:19:03.370Z,72.61
2019-02-20T19:21:03.350Z,72.21
2019-02-20T19:25:07.697Z,72.15
2019-02-20T19:27:08.417Z,71.93
2019-02-20T19:31:03.333Z,71.78
2019-02-20T19:33:04.038Z,72.08
2019-02-20T19:37:03.396Z,71.85
2019-02-20T19:39:03.403Z,72.04
2019-02-20T19:43:03.395Z,71.88
2019-02-20T19:45:08.416Z,71.84
2019-02-20T19:49:03.442Z,71.83
2019-02-20T19:51:03.497Z,71.79
2019-02-20T19:55:03.453Z,71.75
2019-02-20T19:57:03.452Z,71.83
2019-02-20T20:01:03.446Z,71.76
2019-02-20T20:03:05.475Z,71.76
2019-02-20T20:07:03.769Z,71.85
2019-02-20T20:09:08.457Z,71.86
2019-02-20T20:13:03.493Z,71.50
2019-02-20T20:15:03.480Z,71.37
2019-02-20T20:19:03.535Z,71.54
2019-02-20T20:21:08.552Z,71.66
2019-02-20T20:25:03.580Z,71.54
2019-02-20T20:29:06.268Z,71.46
2019-02-20T20:31:03.644Z,71.60
2019-02-20T20:35:03.607Z,71.46
2019-02-20T20:37:03.549Z,71.37
2019-02-20T20:41:03.535Z,71.51
2019-02-20T20:43:08.542Z,71.62
2019-02-20T20:47:03.562Z,71.38
2019-02-20T20:49:03.596Z,71.51
2019-02-20T20:55:03.590Z,71.34
2019-02-20T20:57:04.366Z,71.30
2019-02-20T21:01:03.593Z,71.29
2019-02-20T21:03:03.601Z,71.26
2019-02-20T21:07:03.603Z,71.26
2019-02-20T21:09:03.641Z,71.22
2019-02-20T21:13:03.627Z,71.14
2019-02-20T21:15:03.661Z,71.11
2019-02-20T21:19:03.630Z,71.31
2019-02-20T21:21:03.652Z,70.93
2019-02-20T21:25:04.543Z,71.16
2019-02-20T21:27:03.668Z,71.31
2019-02-20T21:31:03.684Z,70.96
2019-02-20T21:33:03.682Z,70.95
2019-02-20T21:37:03.696Z,70.94
2019-02-20T21:39:05.579Z,70.92
2019-02-20T21:43:03.716Z,70.89
2019-02-20T21:45:03.727Z,70.94
2019-02-20T21:49:03.731Z,70.87
2019-02-20T21:51:03.790Z,70.82
2019-02-20T21:55:03.719Z,70.71
2019-02-20T21:57:03.742Z,70.65
2019-02-20T22:01:03.756Z,70.65
2019-02-20T22:03:03.756Z,70.68
2019-02-20T22:07:03.742Z,70.70
2019-02-20T22:09:03.785Z,70.64
2019-02-20T22:13:03.784Z,70.82
2019-02-20T22:15:08.112Z,70.80
2019-02-20T22:19:03.807Z,71.07
2019-02-20T22:21:03.823Z,70.74
2019-02-20T22:25:03.825Z,70.61
2019-02-20T22:27:03.838Z,70.59
2019-02-20T22:31:03.850Z,70.58
2019-02-20T22:33:03.854Z,70.50
2019-02-20T22:37:03.884Z,70.49
2019-02-20T22:39:08.903Z,70.45
2019-02-20T22:43:03.888Z,70.48
2019-02-20T22:45:03.886Z,70.49
2019-02-20T22:49:03.924Z,70.43
2019-02-20T22:51:03.932Z,70.40
2019-02-20T22:55:03.941Z,70.77
2019-02-20T22:57:03.954Z,70.37
2019-02-20T23:03:10.382Z,70.46
2019-02-20T23:05:08.969Z,70.48
2019-02-20T23:09:03.978Z,70.37
2019-02-20T23:11:03.965Z,70.29
2019-02-20T23:15:03.978Z,70.19
2019-02-20T23:17:03.968Z,70.33
2019-02-20T23:21:04.010Z,70.11
2019-02-20T23:23:04.014Z,70.30
2019-02-20T23:29:04.082Z,70.27
2019-02-20T23:31:04.040Z,70.28
2019-02-20T23:35:04.059Z,70.07
2019-02-20T23:37:09.075Z,70.49
2019-02-20T23:41:04.101Z,70.20
2019-02-20T23:43:09.071Z,70.26
2019-02-20T23:47:04.098Z,70.27
2019-02-20T23:49:09.079Z,70.22
2019-02-20T23:53:04.091Z,70.15
2019-02-20T23:55:04.083Z,69.95
2019-02-20T23:59:04.084Z,70.03
